createdAt,value
2022-08-25T00:01:59.343Z,101297.06
2022-08-25T00:04:30.240Z,101300.56
2022-08-25T00:07:02.960Z,101300.19
2022-08-25T00:09:33.633Z,101293.50
2022-08-25T00:12:03.341Z,101288.03
2022-08-25T00:14:35.864Z,101282.66
2022-08-25T00:17:07.375Z,101287.81
2022-08-25T00:19:38.844Z,101302.59
2022-08-25T00:22:08.835Z,101300.44
2022-08-25T00:24:37.385Z,101299.41
2022-08-25T00:27:06.428Z,101311.03
2022-08-25T00:29:38.066Z,101313.69
2022-08-25T00:32:08.247Z,101309.31
2022-08-25T00:34:39.020Z,101310.81
2022-08-25T00:37:10.303Z,101309.59
2022-08-25T00:39:40.420Z,101315.41
2022-08-25T00:42:11.864Z,101320.03
2022-08-25T00:44:45.102Z,101322.16
2022-08-25T00:47:15.193Z,101321.34
2022-08-25T00:49:48.750Z,101324.81
2022-08-25T00:52:22.021Z,101332.06
2022-08-25T00:54:57.725Z,101325.91
2022-08-25T00:57:34.601Z,101326.22
2022-08-25T01:00:06.959Z,101326.63
2022-08-25T01:02:36.711Z,101324.13
2022-08-25T01:05:05.878Z,101320.78
2022-08-25T01:07:34.514Z,101315.78
2022-08-25T01:10:03.268Z,101316.75
2022-08-25T01:12:31.607Z,101315.38
2022-08-25T01:15:01.569Z,101304.53
2022-08-25T01:17:37.046Z,101310.00
2022-08-25T01:20:06.429Z,101314.72
2022-08-25T01:22:38.083Z,101315.06
2022-08-25T01:25:23.203Z,101310.56
2022-08-25T01:27:52.242Z,101309.84
2022-08-25T01:30:22.539Z,101308.50
2022-08-25T01:32:50.869Z,101309.84
2022-08-25T01:35:19.664Z,101312.81
2022-08-25T01:37:49.833Z,101314.56
2022-08-25T01:40:18.402Z,101309.06
2022-08-25T01:43:03.182Z,101317.00
2022-08-25T01:45:31.722Z,101305.22
2022-08-25T01:48:00.152Z,101308.34
2022-08-25T01:50:29.159Z,101306.47
2022-08-25T01:53:04.777Z,101314.13
2022-08-25T01:55:51.597Z,101315.56
2022-08-25T01:58:21.227Z,101307.19
2022-08-25T02:00:51.265Z,101310.84
2022-08-25T02:03:19.924Z,101316.41
2022-08-25T02:05:49.025Z,101320.38
2022-08-25T02:08:18.923Z,101323.22
2022-08-25T02:10:48.240Z,101315.66
2022-08-25T02:13:17.590Z,101318.28
2022-08-25T02:15:50.871Z,101319.25
2022-08-25T02:18:20.531Z,101323.84
2022-08-25T02:20:49.462Z,101310.03
2022-08-25T02:23:19.444Z,101310.38
2022-08-25T02:25:48.055Z,101327.31
2022-08-25T02:28:16.814Z,101316.09
2022-08-25T02:30:45.939Z,101321.63
2022-08-25T02:33:14.271Z,101324.16
2022-08-25T02:35:42.583Z,101319.69
2022-08-25T02:38:10.895Z,101317.16
2022-08-25T02:40:40.760Z,101315.91
2022-08-25T02:43:09.131Z,101311.72
2022-08-25T02:45:37.851Z,101307.22
2022-08-25T02:48:06.505Z,101307.31
2022-08-25T02:50:35.050Z,101310.22
2022-08-25T02:53:03.400Z,101311.34
2022-08-25T02:55:31.834Z,101310.31
2022-08-25T02:58:04.447Z,101310.63
2022-08-25T03:00:33.430Z,101303.94
2022-08-25T03:03:02.290Z,101298.53
2022-08-25T03:05:30.634Z,101303.81
2022-08-25T03:07:59.077Z,101299.97
2022-08-25T03:10:28.166Z,101290.97
2022-08-25T03:12:56.464Z,101287.94
2022-08-25T03:15:27.839Z,101287.94
2022-08-25T03:17:59.104Z,101287.72
2022-08-25T03:20:29.785Z,101284.16
2022-08-25T03:22:58.198Z,101280.63
2022-08-25T03:25:43.892Z,101271.63
2022-08-25T03:28:12.198Z,101276.22
2022-08-25T03:30:42.215Z,101279.53
2022-08-25T03:33:10.585Z,101280.19
2022-08-25T03:35:39.176Z,101285.91
2022-08-25T03:38:07.627Z,101276.00
2022-08-25T03:40:36.074Z,101272.41
2022-08-25T03:43:04.392Z,101273.13
2022-08-25T03:45:32.885Z,101272.91
2022-08-25T03:48:02.627Z,101278.78
2022-08-25T03:50:31.237Z,101273.97
2022-08-25T03:52:59.519Z,101283.88
2022-08-25T03:55:28.275Z,101275.13
2022-08-25T03:57:58.171Z,101277.09
2022-08-25T04:00:26.511Z,101276.94
2022-08-25T04:02:54.822Z,101276.16
2022-08-25T04:05:24.539Z,101266.78
2022-08-25T04:07:55.895Z,101262.69
2022-08-25T04:10:24.310Z,101254.34
2022-08-25T04:12:52.626Z,101250.47
2022-08-25T04:15:21.178Z,101242.88
2022-08-25T04:17:51.853Z,101247.13
2022-08-25T04:20:22.216Z,101240.06
2022-08-25T04:22:51.880Z,101241.78
2022-08-25T04:25:20.197Z,101245.59
2022-08-25T04:27:48.471Z,101247.44
2022-08-25T04:30:17.242Z,101244.72
2022-08-25T04:32:45.665Z,101239.75
2022-08-25T04:35:13.992Z,101244.88
2022-08-25T04:37:42.594Z,101250.78
2022-08-25T04:40:13.685Z,101252.56
2022-08-25T04:42:42.302Z,101252.56
2022-08-25T04:45:11.283Z,101252.03
2022-08-25T04:47:40.249Z,101260.78
2022-08-25T04:50:10.804Z,101259.31
2022-08-25T04:52:39.407Z,101252.66
2022-08-25T04:55:08.391Z,101260.16
2022-08-25T04:57:38.429Z,101251.41
2022-08-25T05:00:08.332Z,101250.56
2022-08-25T05:02:36.955Z,101249.13
2022-08-25T05:05:07.071Z,101248.69
2022-08-25T05:07:35.655Z,101244.34
2022-08-25T05:10:04.381Z,101248.25
2022-08-25T05:12:33.364Z,101244.13
2022-08-25T05:15:27.026Z,101238.91
2022-08-25T05:17:56.186Z,101244.13
2022-08-25T05:20:25.724Z,101241.78
2022-08-25T05:22:54.319Z,101247.59
2022-08-25T05:25:23.156Z,101251.97
2022-08-25T05:27:51.798Z,101253.25
2022-08-25T05:30:21.905Z,101255.03
2022-08-25T05:32:50.526Z,101244.81
2022-08-25T05:35:19.909Z,101251.59
2022-08-25T05:37:48.713Z,101246.16
2022-08-25T05:40:17.407Z,101244.56
2022-08-25T05:42:46.051Z,101242.81
2022-08-25T05:45:20.471Z,101243.97
2022-08-25T05:47:51.451Z,101245.06
2022-08-25T05:50:20.323Z,101251.25
2022-08-25T05:52:48.935Z,101240.69
2022-08-25T05:55:17.606Z,101233.88
2022-08-25T05:57:46.240Z,101235.34
2022-08-25T06:00:15.411Z,101233.59
2022-08-25T06:02:46.245Z,101231.19
2022-08-25T06:05:19.296Z,101221.47
2022-08-25T06:07:49.218Z,101221.13
2022-08-25T06:10:20.239Z,101219.28
2022-08-25T06:12:50.095Z,101236.31
2022-08-25T06:15:21.104Z,101235.03
2022-08-25T06:17:50.327Z,101231.91
2022-08-25T06:20:25.379Z,101235.03
2022-08-25T06:22:54.961Z,101244.47
2022-08-25T06:25:26.483Z,101238.63
2022-08-25T06:27:55.496Z,101240.78
2022-08-25T06:30:28.929Z,101233.84
2022-08-25T06:32:57.859Z,101243.19
2022-08-25T06:35:28.204Z,101240.94
2022-08-25T06:37:56.495Z,101247.38
2022-08-25T06:40:26.146Z,101251.03
2022-08-25T06:42:54.629Z,101245.31
2022-08-25T06:45:23.162Z,101256.84
2022-08-25T06:47:52.853Z,101255.38
2022-08-25T06:50:21.677Z,101260.16
2022-08-25T06:52:51.787Z,101259.09
2022-08-25T06:55:20.234Z,101246.38
2022-08-25T06:57:48.606Z,101262.78
2022-08-25T07:00:17.632Z,101261.47
2022-08-25T07:02:47.088Z,101255.00
2022-08-25T07:05:26.944Z,101268.31
2022-08-25T07:08:03.999Z,101260.81
2022-08-25T07:10:32.506Z,101262.91
2022-08-25T07:13:02.265Z,101257.59
2022-08-25T07:15:30.591Z,101258.22
2022-08-25T07:17:59.497Z,101256.66
2022-08-25T07:20:29.321Z,101256.63
2022-08-25T07:22:59.033Z,101264.53
2022-08-25T07:25:28.843Z,101256.25
2022-08-25T07:27:58.939Z,101254.81
2022-08-25T07:30:28.344Z,101248.88
2022-08-25T07:32:56.762Z,101256.16
2022-08-25T07:35:26.277Z,101257.75
2022-08-25T07:37:57.156Z,101250.00
2022-08-25T07:40:30.398Z,101253.81
2022-08-25T07:43:02.584Z,101243.53
2022-08-25T07:45:34.020Z,101244.34
2022-08-25T07:48:05.390Z,101241.72
2022-08-25T07:50:34.900Z,101235.97
2022-08-25T07:53:03.660Z,101236.13
2022-08-25T07:55:36.496Z,101238.78
2022-08-25T07:58:05.966Z,101247.47
2022-08-25T08:00:36.989Z,101249.72
2022-08-25T08:03:08.216Z,101256.88
2022-08-25T08:05:42.700Z,101258.44
2022-08-25T08:08:11.966Z,101256.06
2022-08-25T08:11:04.365Z,101250.66
2022-08-25T08:13:32.034Z,101249.81
2022-08-25T08:16:00.682Z,101246.34
2022-08-25T08:18:29.304Z,101234.78
2022-08-25T08:20:57.911Z,101233.78
2022-08-25T08:23:28.427Z,101234.00
2022-08-25T08:25:58.381Z,101234.69
2022-08-25T08:28:28.136Z,101223.91
2022-08-25T08:30:56.786Z,101223.47
2022-08-25T08:33:26.533Z,101224.19
2022-08-25T08:36:04.875Z,101212.66
2022-08-25T08:38:34.954Z,101211.75
2022-08-25T08:41:54.318Z,101212.03
2022-08-25T08:44:29.451Z,101205.97
2022-08-25T08:47:04.939Z,101202.63
2022-08-25T08:49:48.215Z,101209.34
2022-08-25T08:52:20.607Z,101205.28
2022-08-25T08:55:05.569Z,101200.41
2022-08-25T08:57:44.421Z,101189.59
2022-08-25T09:00:14.448Z,101194.50
2022-08-25T09:02:51.910Z,101187.06
2022-08-25T09:05:24.205Z,101186.13
2022-08-25T09:07:56.459Z,101176.56
2022-08-25T09:10:27.931Z,101168.88
2022-08-25T09:13:12.220Z,101167.13
2022-08-25T09:16:08.045Z,101171.81
2022-08-25T09:18:52.670Z,101169.53
2022-08-25T09:21:30.348Z,101174.84
2022-08-25T09:24:22.056Z,101164.28
2022-08-25T09:27:04.338Z,101159.66
2022-08-25T09:29:48.748Z,101165.78
2022-08-25T09:32:23.984Z,101158.09
2022-08-25T09:34:55.658Z,101162.97
2022-08-25T09:37:26.946Z,101159.38
2022-08-25T09:39:57.389Z,101156.84
2022-08-25T09:42:49.706Z,101152.41
2022-08-25T09:45:34.715Z,101150.25
2022-08-25T09:48:03.670Z,101145.91
2022-08-25T09:50:35.010Z,101141.38
2022-08-25T09:53:19.048Z,101141.97
2022-08-25T09:56:00.124Z,101146.47
2022-08-25T09:58:29.194Z,101130.94
2022-08-25T10:01:13.221Z,101135.47
2022-08-25T10:04:00.507Z,101132.72
2022-08-25T10:06:34.438Z,101125.00
2022-08-25T10:09:06.885Z,101119.72
2022-08-25T10:11:42.703Z,101120.84
2022-08-25T10:14:22.740Z,101129.53
2022-08-25T10:17:12.063Z,101122.94
2022-08-25T10:19:41.454Z,101124.91
2022-08-25T10:22:12.222Z,101115.84
2022-08-25T10:24:44.137Z,101113.53
2022-08-25T10:27:23.382Z,101112.50
2022-08-25T10:30:16.138Z,101108.09
2022-08-25T10:33:17.480Z,101109.75
2022-08-25T10:36:00.183Z,101093.22
2022-08-25T10:38:38.185Z,101084.97
2022-08-25T10:41:29.232Z,101102.63
2022-08-25T10:44:31.965Z,101091.59
2022-08-25T10:47:15.334Z,101083.44
2022-08-25T10:49:49.947Z,101084.06
2022-08-25T10:52:25.048Z,101079.25
2022-08-25T10:55:00.697Z,101079.09
2022-08-25T10:57:35.955Z,101073.59
2022-08-25T11:00:10.110Z,101072.06
2022-08-25T11:03:01.237Z,101066.34
2022-08-25T11:05:40.454Z,101067.97
2022-08-25T11:08:15.542Z,101071.16
2022-08-25T11:10:48.904Z,101057.63
2022-08-25T11:13:26.287Z,101054.00
2022-08-25T11:16:16.689Z,101066.63
2022-08-25T11:18:55.397Z,101061.53
2022-08-25T11:21:34.797Z,101056.25
2022-08-25T11:24:11.718Z,101048.88
2022-08-25T11:26:48.840Z,101045.06
2022-08-25T11:29:22.720Z,101046.34
2022-08-25T11:31:54.146Z,101044.06
2022-08-25T11:34:24.064Z,101042.31
2022-08-25T11:37:01.080Z,101044.66
2022-08-25T11:40:00.135Z,101039.94
2022-08-25T11:42:43.051Z,101034.63
2022-08-25T11:45:26.403Z,101041.66
2022-08-25T11:48:14.351Z,101036.69
2022-08-25T11:51:03.266Z,101029.06
2022-08-25T11:53:37.753Z,101031.25
2022-08-25T11:56:08.633Z,101032.94
2022-08-25T11:58:49.988Z,101027.91
2022-08-25T12:01:52.095Z,101030.91
2022-08-25T12:04:44.788Z,101025.34
2022-08-25T12:07:52.102Z,101028.28
2022-08-25T12:10:24.447Z,101010.06
2022-08-25T12:13:25.470Z,101015.66
2022-08-25T12:16:02.488Z,101015.94
2022-08-25T12:18:45.597Z,101011.88
2022-08-25T12:21:17.404Z,101007.66
2022-08-25T12:24:05.710Z,100999.13
2022-08-25T12:26:46.062Z,100996.69
2022-08-25T12:29:21.616Z,100996.63
2022-08-25T12:32:21.450Z,100987.00
2022-08-25T12:35:15.847Z,100992.09
2022-08-25T12:37:58.159Z,100988.88
2022-08-25T12:40:32.796Z,100980.78
2022-08-25T12:43:27.711Z,100980.53
2022-08-25T12:46:36.507Z,100984.59
2022-08-25T12:49:12.444Z,100983.69
2022-08-25T12:52:03.588Z,100979.38
2022-08-25T12:54:50.941Z,100980.84
2022-08-25T12:57:40.702Z,100977.72
2022-08-25T13:00:18.603Z,100979.41
2022-08-25T13:03:27.162Z,100971.41
2022-08-25T13:06:36.091Z,100972.56
2022-08-25T13:09:41.175Z,100967.28
2022-08-25T13:12:18.563Z,100976.34
2022-08-25T13:14:55.412Z,100959.91
2022-08-25T13:17:30.368Z,100957.97
2022-08-25T13:20:21.055Z,100957.47
2022-08-25T13:22:57.209Z,100956.31
2022-08-25T13:25:32.420Z,100946.16
2022-08-25T13:28:05.323Z,100950.72
2022-08-25T13:30:36.410Z,100945.03
2022-08-25T13:33:20.527Z,100933.19
2022-08-25T13:36:11.903Z,100943.13
2022-08-25T13:38:40.263Z,100940.66
2022-08-25T13:41:10.769Z,100934.16
2022-08-25T13:43:41.052Z,100928.41
2022-08-25T13:46:10.693Z,100928.09
2022-08-25T13:48:49.347Z,100937.69
2022-08-25T13:51:31.422Z,100927.78
2022-08-25T13:54:03.634Z,100927.72
2022-08-25T13:56:40.001Z,100921.94
2022-08-25T13:59:25.795Z,100926.47
2022-08-25T14:01:56.143Z,100919.03
2022-08-25T14:04:31.954Z,100916.09
2022-08-25T14:07:25.414Z,100919.41
2022-08-25T14:09:56.618Z,100912.56
2022-08-25T14:12:30.660Z,100912.47
2022-08-25T14:15:02.024Z,100915.22
2022-08-25T14:17:39.072Z,100909.28
2022-08-25T14:20:19.904Z,100899.69
2022-08-25T14:22:49.175Z,100909.88
2022-08-25T14:25:17.989Z,100900.34
2022-08-25T14:28:10.715Z,100899.00
2022-08-25T14:30:46.254Z,100897.56
2022-08-25T14:33:16.538Z,100897.03
2022-08-25T14:35:50.504Z,100894.53
2022-08-25T14:38:21.455Z,100886.66
2022-08-25T14:40:51.521Z,100883.97
2022-08-25T14:43:23.684Z,100888.81
2022-08-25T14:45:53.694Z,100889.47
2022-08-25T14:48:26.438Z,100883.03
2022-08-25T14:50:59.448Z,100877.69
2022-08-25T14:53:29.092Z,100891.59
2022-08-25T14:55:59.148Z,100876.59
2022-08-25T14:58:34.028Z,100877.22
2022-08-25T15:01:05.538Z,100874.22
2022-08-25T15:03:38.593Z,100864.47
2022-08-25T15:06:11.260Z,100867.75
2022-08-25T15:08:57.245Z,100874.47
2022-08-25T15:11:26.265Z,100871.50
2022-08-25T15:13:55.120Z,100863.50
2022-08-25T15:16:33.892Z,100864.41
2022-08-25T15:19:06.570Z,100858.91
2022-08-25T15:21:37.979Z,100853.69
2022-08-25T15:24:08.867Z,100846.75
2022-08-25T15:26:43.987Z,100841.47
2022-08-25T15:29:13.650Z,100847.25
2022-08-25T15:31:44.548Z,100850.03
2022-08-25T15:34:14.017Z,100846.56
2022-08-25T15:36:44.973Z,100852.69
2022-08-25T15:39:13.890Z,100844.06
2022-08-25T15:41:42.628Z,100852.97
2022-08-25T15:44:12.547Z,100841.47
2022-08-25T15:46:46.972Z,100841.03
2022-08-25T15:49:20.288Z,100836.53
2022-08-25T15:51:50.524Z,100843.53
2022-08-25T15:54:19.091Z,100846.94
2022-08-25T15:56:47.734Z,100837.47
2022-08-25T15:59:16.763Z,100836.03
2022-08-25T16:01:46.414Z,100832.69
2022-08-25T16:04:15.486Z,100835.97
2022-08-25T16:06:46.949Z,100830.47
2022-08-25T16:09:18.280Z,100830.81
2022-08-25T16:11:56.078Z,100834.56
2022-08-25T16:14:25.920Z,100825.22
2022-08-25T16:16:58.551Z,100833.50
2022-08-25T16:19:28.730Z,100828.66
2022-08-25T16:21:57.789Z,100833.16
2022-08-25T16:24:28.030Z,100828.31
2022-08-25T16:27:11.394Z,100829.38
2022-08-25T16:29:42.747Z,100828.69
2022-08-25T16:32:13.461Z,100827.19
2022-08-25T16:34:43.106Z,100824.25
2022-08-25T16:37:13.652Z,100820.69
2022-08-25T16:39:45.729Z,100813.88
2022-08-25T16:42:14.939Z,100824.19
2022-08-25T16:44:43.496Z,100814.75
2022-08-25T16:47:14.395Z,100821.22
2022-08-25T16:49:47.161Z,100819.53
2022-08-25T16:52:34.151Z,100823.94
2022-08-25T16:55:18.345Z,100820.69
2022-08-25T16:57:48.678Z,100821.81
2022-08-25T17:00:22.048Z,100821.19
2022-08-25T17:02:54.354Z,100818.28
2022-08-25T17:05:22.983Z,100825.78
2022-08-25T17:08:05.947Z,100821.50
2022-08-25T17:10:38.897Z,100814.44
2022-08-25T17:13:08.341Z,100822.38
2022-08-25T17:15:40.255Z,100828.59
2022-08-25T17:18:09.173Z,100819.47
2022-08-25T17:20:40.313Z,100825.63
2022-08-25T17:23:11.843Z,100820.81
2022-08-25T17:25:43.880Z,100825.56
2022-08-25T17:28:13.188Z,100823.53
2022-08-25T17:30:43.290Z,100822.22
2022-08-25T17:33:12.143Z,100826.25
2022-08-25T17:35:41.943Z,100830.75
2022-08-25T17:38:11.949Z,100818.88
2022-08-25T17:40:42.419Z,100828.13
2022-08-25T17:43:11.387Z,100834.81
2022-08-25T17:45:40.157Z,100826.03
2022-08-25T17:48:09.494Z,100831.38
2022-08-25T17:50:39.176Z,100830.75
2022-08-25T17:53:07.894Z,100836.78
2022-08-25T17:55:38.959Z,100830.66
2022-08-25T17:58:13.974Z,100832.28
2022-08-25T18:00:43.962Z,100831.22
2022-08-25T18:03:12.929Z,100833.16
2022-08-25T18:05:41.673Z,100836.16
2022-08-25T18:08:10.860Z,100834.13
2022-08-25T18:10:39.745Z,100837.66
2022-08-25T18:13:08.502Z,100841.16
2022-08-25T18:15:42.337Z,100845.53
2022-08-25T18:18:12.584Z,100842.00
2022-08-25T18:20:43.813Z,100848.53
2022-08-25T18:23:12.729Z,100856.09
2022-08-25T18:25:41.829Z,100846.72
2022-08-25T18:28:11.934Z,100843.03
2022-08-25T18:30:42.408Z,100844.94
2022-08-25T18:33:11.057Z,100846.75
2022-08-25T18:35:39.875Z,100843.22
2022-08-25T18:38:26.299Z,100844.31
2022-08-25T18:40:59.243Z,100843.88
2022-08-25T18:43:29.200Z,100858.16
2022-08-25T18:46:04.193Z,100848.13
2022-08-25T18:48:33.920Z,100855.28
2022-08-25T18:51:03.302Z,100857.59
2022-08-25T18:53:37.162Z,100852.25
2022-08-25T18:56:17.113Z,100849.34
2022-08-25T18:58:45.843Z,100850.25
2022-08-25T19:01:17.650Z,100855.94
2022-08-25T19:03:47.471Z,100858.56
2022-08-25T19:06:16.839Z,100852.66
2022-08-25T19:08:45.568Z,100858.41
2022-08-25T19:11:14.327Z,100864.25
2022-08-25T19:13:44.619Z,100855.09
2022-08-25T19:16:20.467Z,100857.94
2022-08-25T19:18:52.134Z,100861.28
2022-08-25T19:21:23.785Z,100863.56
2022-08-25T19:23:53.183Z,100855.03
2022-08-25T19:26:22.679Z,100858.91
2022-08-25T19:28:52.756Z,100860.97
2022-08-25T19:31:24.705Z,100862.81
2022-08-25T19:33:55.458Z,100866.28
2022-08-25T19:36:28.161Z,100862.41
2022-08-25T19:39:00.195Z,100855.78
2022-08-25T19:41:31.319Z,100852.75
2022-08-25T19:44:01.651Z,100857.44
2022-08-25T19:46:35.923Z,100858.50
2022-08-25T19:49:08.848Z,100852.47
2022-08-25T19:51:39.264Z,100856.53
2022-08-25T19:54:12.127Z,100854.41
2022-08-25T19:56:44.035Z,100855.03
2022-08-25T19:59:24.762Z,100854.00
2022-08-25T20:01:55.165Z,100855.06
2022-08-25T20:04:24.898Z,100856.28
2022-08-25T20:06:55.341Z,100856.38
2022-08-25T20:09:38.916Z,100863.88
2022-08-25T20:12:10.755Z,100859.03
2022-08-25T20:14:39.702Z,100856.19
2022-08-25T20:17:13.213Z,100851.81
2022-08-25T20:19:52.467Z,100855.34
2022-08-25T20:22:25.384Z,100858.44
2022-08-25T20:24:57.800Z,100859.88
2022-08-25T20:27:29.723Z,100858.94
2022-08-25T20:29:58.445Z,100856.34
2022-08-25T20:32:28.924Z,100859.44
2022-08-25T20:34:57.820Z,100860.84
2022-08-25T20:37:27.252Z,100858.50
2022-08-25T20:39:56.074Z,100865.25
2022-08-25T20:42:24.776Z,100863.00
2022-08-25T20:44:54.718Z,100866.41
2022-08-25T20:47:23.332Z,100871.97
2022-08-25T20:49:53.330Z,100875.03
2022-08-25T20:52:22.237Z,100873.25
2022-08-25T20:54:51.219Z,100870.31
2022-08-25T20:57:24.338Z,100873.03
2022-08-25T20:59:55.522Z,100869.56
2022-08-25T21:02:24.893Z,100875.59
2022-08-25T21:04:57.072Z,100873.81
2022-08-25T21:07:26.448Z,100871.06
2022-08-25T21:09:56.927Z,100870.59
2022-08-25T21:12:25.495Z,100874.47
2022-08-25T21:14:55.541Z,100883.22
2022-08-25T21:17:24.119Z,100874.09
2022-08-25T21:19:54.079Z,100877.16
2022-08-25T21:22:23.068Z,100879.84
2022-08-25T21:24:52.230Z,100882.31
2022-08-25T21:27:21.235Z,100873.69
2022-08-25T21:29:54.477Z,100877.59
2022-08-25T21:32:24.822Z,100874.13
2022-08-25T21:34:56.428Z,100874.00
2022-08-25T21:37:26.048Z,100878.72
2022-08-25T21:39:55.647Z,100876.91
2022-08-25T21:42:25.508Z,100876.78
2022-08-25T21:44:54.148Z,100886.47
2022-08-25T21:47:23.263Z,100889.03
2022-08-25T21:49:52.091Z,100887.22
2022-08-25T21:52:22.133Z,100885.94
2022-08-25T21:54:53.498Z,100883.41
2022-08-25T21:57:23.806Z,100878.31
2022-08-25T21:59:52.658Z,100891.78
2022-08-25T22:02:23.341Z,100881.13
2022-08-25T22:04:53.819Z,100877.84
2022-08-25T22:07:24.936Z,100878.81
2022-08-25T22:09:54.651Z,100880.38
2022-08-25T22:12:24.870Z,100889.88
2022-08-25T22:14:53.944Z,100883.25
2022-08-25T22:17:24.365Z,100881.47
2022-08-25T22:19:53.564Z,100883.53
2022-08-25T22:22:24.061Z,100887.53
2022-08-25T22:24:55.888Z,100885.16
2022-08-25T22:27:24.669Z,100885.72
2022-08-25T22:29:53.647Z,100886.41
2022-08-25T22:32:22.462Z,100879.75
2022-08-25T22:34:51.090Z,100887.91
2022-08-25T22:37:20.018Z,100886.94
2022-08-25T22:39:50.034Z,100884.94
2022-08-25T22:42:18.909Z,100887.28
2022-08-25T22:44:55.093Z,100887.53
2022-08-25T22:47:23.678Z,100885.53
2022-08-25T22:49:53.266Z,100889.06
2022-08-25T22:52:21.879Z,100894.34
2022-08-25T22:55:03.917Z,100899.56
2022-08-25T22:57:33.256Z,100894.34
2022-08-25T23:00:01.852Z,100904.53
2022-08-25T23:02:30.579Z,100898.88
2022-08-25T23:05:00.907Z,100900.38
2022-08-25T23:07:31.059Z,100899.69
2022-08-25T23:10:02.847Z,100911.56
2022-08-25T23:12:32.974Z,100916.53
2022-08-25T23:15:02.024Z,100914.31
2022-08-25T23:17:31.675Z,100913.47
2022-08-25T23:20:00.254Z,100916.25
2022-08-25T23:22:28.760Z,100913.63
2022-08-25T23:24:57.400Z,100908.47
2022-08-25T23:27:25.984Z,100909.63
2022-08-25T23:29:55.945Z,100919.47
2022-08-25T23:32:25.635Z,100912.66
2022-08-25T23:34:56.803Z,100914.69
2022-08-25T23:37:25.425Z,100919.00
2022-08-25T23:39:55.255Z,100916.38
2022-08-25T23:42:23.865Z,100919.69
2022-08-25T23:44:52.690Z,100914.53
2022-08-25T23:47:22.693Z,100911.53
2022-08-25T23:49:51.339Z,100913.84
2022-08-25T23:52:19.922Z,100925.38
2022-08-25T23:54:48.582Z,100923.69
2022-08-25T23:57:17.220Z,100922.22
2022-08-25T23:59:47.539Z,100923.38
